Time;durP1;ratioP1;P1;durP2;ratioP2;P2;SDS_P1;SDS_P2;PMS_P1;PMS_P2;Temp;Humidity;BMP_temperature;BMP_pressure;BME280_temperature;BME280_humidity;BME280_pressure;Samples;Min_cycle;Max_cycle;Signal;HPM_P1;HPM_P2
2021/08/17 00:01:35;;;;;;;9.93;2.25;;;;;;;-142.75;57.17;77180.56;4999432;28;19921;-77
2021/08/17 00:04:00;;;;;;;;;;;;;;;-142.75;56.79;77172.69;5059571;28;20462;-76
2021/08/17 00:06:26;;;;;;;8.23;2.05;;;;;;;-142.75;56.94;77182.53;5060898;28;19921;-77
2021/08/17 00:08:51;;;;;;;;;;;;;;;-142.75;57.10;77184.50;5064584;28;20030;-78
2021/08/17 00:11:16;;;;;;;9.18;2.40;;;;;;;-142.75;57.23;77188.44;4997059;28;19918;-78
2021/08/17 00:13:43;;;;;;;8.63;2.33;;;;;;;-142.75;57.07;77184.50;4998998;28;20099;-78
2021/08/17 00:16:08;;;;;;;7.88;2.35;;;;;;;-142.75;57.22;77188.44;5066391;28;20172;-78
2021/08/17 00:18:33;;;;;;;10.98;2.40;;;;;;;-142.75;57.53;77200.25;4995588;28;20105;-77
2021/08/17 00:20:59;;;;;;;8.15;2.42;;;;;;;-142.75;57.45;77204.19;5000096;28;20109;-77
2021/08/17 00:23:24;;;;;;;12.38;2.45;;;;;;;-142.75;57.29;77188.44;5000811;28;20022;-76
2021/08/17 00:25:49;;;;;;;;;;;;;;;-142.75;57.32;77174.66;4995733;28;20029;-77
2021/08/17 00:28:14;;;;;;;10.50;2.72;;;;;;;-142.75;57.30;77180.56;5064837;28;20379;-77
2021/08/17 00:30:40;;;;;;;;;;;;;;;-142.75;57.63;77188.44;5062788;28;20037;-75
2021/08/17 00:33:08;;;;;;;14.40;2.80;;;;;;;-142.75;57.54;77186.47;5063779;28;20432;-79
2021/08/17 00:35:36;;;;;;;14.82;2.70;;;;;;;-142.75;57.63;77188.44;5065017;28;20036;-77
2021/08/17 00:38:02;;;;;;;10.50;2.00;;;;;;;-142.75;57.90;77192.38;5070151;28;20114;-76
2021/08/17 00:40:27;;;;;;;8.65;2.42;;;;;;;-142.75;58.00;77190.41;4997290;28;20045;-76
2021/08/17 00:42:53;;;;;;;13.02;2.50;;;;;;;-142.75;58.16;77192.38;4994142;28;20034;-78
2021/08/17 00:45:24;;;;;;;7.97;2.80;;;;;;;-142.75;58.43;77192.38;4998420;28;20027;-77
2021/08/17 00:47:54;;;;;;;9.40;2.83;;;;;;;-142.75;58.63;77196.31;5067645;28;20063;-77
2021/08/17 00:50:26;;;;;;;8.60;2.42;;;;;;;-142.75;59.01;77198.28;5066620;28;20641;-76
2021/08/17 00:52:54;;;;;;;9.88;2.22;;;;;;;-142.75;59.27;77192.38;5001183;28;20042;-77
2021/08/17 00:55:20;;;;;;;12.57;2.70;;;;;;;-142.75;59.50;77180.56;4995106;28;20407;-77
2021/08/17 00:57:46;;;;;;;6.78;1.77;;;;;;;-142.75;59.25;77168.75;5067704;28;20411;-78
2021/08/17 01:00:12;;;;;;;10.82;3.50;;;;;;;-142.75;59.56;77164.81;4994383;28;20022;-77
2021/08/17 01:02:37;;;;;;;;;;;;;;;-142.75;59.56;77164.81;5062308;28;20507;-78
2021/08/17 01:05:04;;;;;;;10.85;2.58;;;;;;;-142.75;59.72;77158.91;4996018;28;19914;-77
2021/08/17 01:07:32;;;;;;;10.05;3.03;;;;;;;-142.75;60.04;77164.81;4992248;28;20425;-78
2021/08/17 01:09:58;;;;;;;11.05;2.65;;;;;;;-142.75;60.16;77168.75;5063538;28;20029;-77
2021/08/17 01:12:24;;;;;;;11.18;3.28;;;;;;;-142.75;60.16;77162.84;5068088;28;20029;-76
2021/08/17 01:14:49;;;;;;;;;;;;;;;-142.75;60.35;77156.94;4999192;28;20030;-76
2021/08/17 01:17:18;;;;;;;7.90;2.80;;;;;;;-142.75;60.27;77158.91;4998518;28;19959;-77
2021/08/17 01:19:45;;;;;;;13.15;2.80;;;;;;;-142.75;60.28;77153.00;4998519;28;20403;-77
2021/08/17 01:22:10;;;;;;;11.23;2.90;;;;;;;-142.75;59.69;77131.34;4994506;28;20075;-77
2021/08/17 01:24:36;;;;;;;10.38;2.90;;;;;;;-142.75;59.41;77115.59;4998775;28;20500;-78
2021/08/17 01:27:01;;;;;;;;;;;;;;;-142.75;59.64;77121.50;4999082;28;20022;-80
2021/08/17 01:29:26;;;;;;;9.73;2.35;;;;;;;-142.75;59.65;77135.28;4999617;28;20488;-77
2021/08/17 01:31:52;;;;;;;10.93;2.55;;;;;;;-142.75;59.79;77141.19;4994178;28;20376;-76
2021/08/17 01:34:18;;;;;;;;;;;;;;;-142.75;59.61;77133.31;4993073;28;20030;-77
2021/08/17 01:36:43;;;;;;;12.45;2.80;;;;;;;-142.75;59.33;77133.31;4998803;28;19913;-76
2021/08/17 01:39:09;;;;;;;9.45;3.05;;;;;;;-142.75;59.37;77129.38;4997934;28;20040;-77
2021/08/17 01:41:35;;;;;;;;;;;;;;;-142.75;59.41;77129.38;5004684;28;20540;-77
2021/08/17 01:44:03;;;;;;;12.23;3.38;;;;;;;-142.75;59.62;77127.41;5004436;28;19913;-75
2021/08/17 01:46:29;;;;;;;4.88;2.38;;;;;;;-142.75;59.49;77133.31;5002543;28;20027;-77
2021/08/17 01:48:54;;;;;;;8.23;2.92;;;;;;;-142.75;59.40;77121.50;5071614;28;20039;-77
2021/08/17 01:51:19;;;;;;;;;;;;;;;-142.75;59.50;77121.50;4997871;28;20533;-78
2021/08/17 01:53:44;;;;;;;9.15;2.92;;;;;;;-142.75;59.44;77117.56;5077592;28;19912;-78
2021/08/17 01:56:11;;;;;;;;;;;;;;;-142.75;59.56;77121.50;5001989;28;20487;-76
2021/08/17 01:58:37;;;;;;;7.97;3.40;;;;;;;-142.75;59.67;77137.25;5067050;28;19917;-76
2021/08/17 02:01:06;;;;;;;11.93;3.10;;;;;;;-142.75;59.54;77125.44;5005733;28;20022;-78
2021/08/17 02:03:32;;;;;;;6.82;2.67;;;;;;;-142.75;59.53;77115.59;5064831;28;20033;-77
2021/08/17 02:05:58;;;;;;;11.40;2.88;;;;;;;-142.75;59.24;77105.75;5064070;28;20030;-78
2021/08/17 02:08:23;;;;;;;8.52;3.05;;;;;;;-142.75;59.41;77109.69;5071203;28;20478;-78
2021/08/17 02:10:48;;;;;;;;;;;;;;;-142.75;59.45;77109.69;5001767;28;20030;-78
2021/08/17 02:13:16;;;;;;;10.15;3.38;;;;;;;-142.75;59.08;77101.81;5002641;28;20379;-78
2021/08/17 02:15:42;;;;;;;6.80;2.92;;;;;;;-142.75;59.06;77093.94;5073121;28;20611;-77
2021/08/17 02:18:08;;;;;;;12.35;3.40;;;;;;;-142.75;59.02;77099.84;4997445;28;20018;-77
2021/08/17 02:20:33;;;;;;;8.85;2.83;;;;;;;-142.75;59.04;77099.84;5000369;28;20033;-77
2021/08/17 02:22:58;;;;;;;;;;;;;;;-142.75;58.94;77097.88;5000030;28;20021;-78
2021/08/17 02:25:23;;;;;;;8.63;3.15;;;;;;;-142.75;59.00;77109.69;5059591;28;19945;-77
2021/08/17 02:27:49;;;;;;;;;;;;;;;-142.75;58.89;77090.00;5000168;28;20075;-77
2021/08/17 02:30:14;;;;;;;7.03;3.00;;;;;;;-142.75;58.85;77097.88;4997364;28;20287;-77
2021/08/17 02:32:39;;;;;;;;;;;;;;;-142.75;58.53;77076.22;4996298;28;20030;-77
2021/08/17 02:35:05;;;;;;;12.82;3.35;;;;;;;-142.75;58.73;77084.09;5066927;28;19960;-78
2021/08/17 02:37:31;;;;;;;11.68;3.13;;;;;;;-142.75;59.25;77095.91;4999235;28;20034;-76
2021/08/17 02:39:56;;;;;;;10.75;3.13;;;;;;;-142.75;59.49;77095.91;5002519;28;20045;-77
2021/08/17 02:42:21;;;;;;;9.93;4.05;;;;;;;-142.75;59.37;77105.75;4998402;28;20426;-76
2021/08/17 02:44:47;;;;;;;9.98;3.45;;;;;;;-142.75;59.49;77111.66;5066983;28;20098;-78
2021/08/17 02:47:13;;;;;;;8.23;3.30;;;;;;;-142.75;60.01;77115.59;4995399;28;20041;-77
2021/08/17 02:49:38;;;;;;;9.45;3.80;;;;;;;-142.75;60.42;77121.50;4997155;28;20046;-77
2021/08/17 02:52:05;;;;;;;11.82;4.15;;;;;;;-142.75;61.08;77127.41;5000558;28;20033;-78
2021/08/17 02:54:32;;;;;;;11.90;3.60;;;;;;;-142.75;61.52;77127.41;5070038;28;20154;-77
2021/08/17 02:56:57;;;;;;;7.35;3.33;;;;;;;-142.75;61.78;77131.34;5066321;28;20162;-78
2021/08/17 02:59:25;;;;;;;9.48;3.72;;;;;;;-142.75;61.88;77121.50;4999559;28;20102;-77
2021/08/17 03:01:50;;;;;;;8.65;4.07;;;;;;;-142.75;61.78;77117.56;5000478;28;20019;-77
2021/08/17 03:04:15;;;;;;;10.98;4.40;;;;;;;-142.75;61.91;77105.75;5066050;28;20029;-77
2021/08/17 03:06:41;;;;;;;;;;;;;;;-142.75;62.07;77099.84;4999952;28;20029;-78
2021/08/17 03:09:06;;;;;;;11.07;3.90;;;;;;;-142.75;62.68;77105.75;5069950;28;19925;-77
2021/08/17 03:11:31;;;;;;;11.82;5.32;;;;;;;-142.75;62.77;77113.63;4994448;28;20033;-76
2021/08/17 03:13:59;;;;;;;;;;;;;;;-142.75;62.83;77105.75;5003593;28;20026;-77
2021/08/17 03:16:25;;;;;;;;;;;;;;;-142.75;63.06;77101.81;5069626;28;19922;-77
2021/08/17 03:18:51;;;;;;;12.57;4.97;;;;;;;-142.75;63.07;77090.00;5001627;28;20000;-78
2021/08/17 03:21:17;;;;;;;13.57;5.15;;;;;;;-142.75;63.20;77086.06;4995992;28;20026;-76
2021/08/17 03:23:42;;;;;;;9.90;4.47;;;;;;;-142.75;63.33;77080.16;5001324;28;20433;-77
2021/08/17 03:26:08;;;;;;;;;;;;;;;-142.75;63.54;77068.34;5069049;28;20504;-77
2021/08/17 03:28:33;;;;;;;13.73;5.47;;;;;;;-142.75;63.77;77086.06;5001680;28;19913;-78
2021/08/17 03:30:59;;;;;;;;;;;;;;;-142.75;63.79;77086.06;5067588;28;20439;-77
2021/08/17 03:33:24;;;;;;;13.10;4.90;;;;;;;-142.75;64.11;77099.84;5065605;28;19914;-76
2021/08/17 03:35:49;;;;;;;;;;;;;;;-142.75;64.20;77109.69;5000438;28;20029;-78
2021/08/17 03:38:15;;;;;;;16.33;4.95;;;;;;;-142.75;64.55;77121.50;5003151;28;19913;-78
2021/08/17 03:40:40;;;;;;;;;;;;;;;-142.75;64.69;77129.38;4999146;28;20025;-78
2021/08/17 03:43:06;;;;;;;15.77;5.93;;;;;;;-142.75;65.12;77143.16;4995217;28;19924;-78
2021/08/17 03:45:31;;;;;;;;;;;;;;;-142.75;65.43;77149.06;5063991;28;20034;-78
2021/08/17 03:47:56;;;;;;;13.55;5.45;;;;;;;-142.75;65.68;77164.81;5060883;28;20287;-77
2021/08/17 03:50:22;;;;;;;13.43;5.50;;;;;;;-142.75;65.64;77156.94;4997182;28;20026;-77
2021/08/17 03:52:47;;;;;;;;;;;;;;;-142.75;65.74;77162.84;5071749;28;20028;-77
2021/08/17 03:55:15;;;;;;;12.77;5.50;;;;;;;-142.75;65.98;77168.75;4996453;28;19997;-76
2021/08/17 03:57:41;;;;;;;14.02;6.03;;;;;;;-142.75;66.18;77178.59;5000035;28;20029;-76
2021/08/17 04:00:09;;;;;;;18.33;5.95;;;;;;;-142.75;66.52;77180.56;4998636;28;20034;-78
2021/08/17 04:02:34;;;;;;;14.77;6.85;;;;;;;-142.75;67.44;77200.25;5065942;28;20029;-78
2021/08/17 04:05:02;;;;;;;16.35;6.85;;;;;;;-142.75;67.60;77200.25;4999863;28;20476;-77
2021/08/17 04:07:27;;;;;;;15.85;7.43;;;;;;;-142.75;68.21;77208.13;4997646;28;20034;-76
2021/08/17 04:09:52;;;;;;;15.20;7.53;;;;;;;-142.75;68.46;77208.13;5000399;28;20495;-77
2021/08/17 04:12:17;;;;;;;;;;;;;;;-142.75;68.58;77194.34;4996449;28;20026;-77
2021/08/17 04:14:43;;;;;;;18.55;7.82;;;;;;;-142.75;68.24;77172.69;4997114;28;19913;-77
2021/08/17 04:17:08;;;;;;;;;;;;;;;-142.75;68.21;77178.59;4997536;28;20054;-78
2021/08/17 04:19:38;;;;;;;16.08;8.55;;;;;;;-142.75;68.57;77198.28;5001260;28;19917;-77
2021/08/17 04:22:03;;;;;;;17.80;7.85;;;;;;;-142.75;69.05;77204.19;5061714;28;20013;-77
2021/08/17 04:24:29;;;;;;;21.45;9.77;;;;;;;-142.75;69.57;77200.25;5000234;28;20507;-79
2021/08/17 04:26:55;;;;;;;;;;;;;;;-142.75;69.66;77206.16;4996372;28;20085;-77
2021/08/17 04:29:20;;;;;;;16.13;7.35;;;;;;;-142.75;69.75;77192.38;4998422;28;20004;-78
2021/08/17 04:31:45;;;;;;;;;;;;;;;-142.75;69.73;77182.53;5000837;28;20040;-78
2021/08/17 04:34:10;;;;;;;21.08;8.88;;;;;;;-142.75;69.70;77180.56;5069527;28;19919;-77
2021/08/17 04:36:36;;;;;;;20.65;9.23;;;;;;;-142.75;69.66;77180.56;5064056;28;20034;-78
2021/08/17 04:39:01;;;;;;;19.95;9.15;;;;;;;-142.75;69.66;77178.59;5065152;28;20018;-79
2021/08/17 04:41:27;;;;;;;;;;;;;;;-142.75;69.61;77168.75;5000424;28;20022;-78
2021/08/17 04:43:52;;;;;;;25.85;9.45;;;;;;;-142.75;69.49;77172.69;5067427;28;19912;-77
2021/08/17 04:46:18;;;;;;;22.77;9.57;;;;;;;-142.75;69.52;77154.97;4995855;28;20025;-78
2021/08/17 04:48:43;;;;;;;22.05;9.25;;;;;;;-142.75;69.57;77153.00;5065164;28;20063;-77
2021/08/17 04:51:09;;;;;;;19.27;9.15;;;;;;;-142.75;69.63;77153.00;5001846;28;20484;-77
2021/08/17 04:53:36;;;;;;;29.15;9.40;;;;;;;-142.75;69.72;77143.16;4992653;28;20026;-78
2021/08/17 04:56:02;;;;;;;20.80;9.63;;;;;;;-142.75;69.80;77139.22;4998839;28;20027;-77
2021/08/17 04:58:27;;;;;;;21.20;10.07;;;;;;;-142.75;69.76;77125.44;4996162;28;20083;-78
2021/08/17 05:00:52;;;;;;;;;;;;;;;-142.75;69.53;77113.63;4997361;28;21571;-78
2021/08/17 05:03:19;;;;;;;26.15;10.18;;;;;;;-142.75;70.89;77103.78;4996249;28;19913;-78
2021/08/17 05:05:44;;;;;;;23.08;10.25;;;;;;;-142.75;71.90;77121.50;5001649;28;20022;-78
2021/08/17 05:08:11;;;;;;;20.67;10.10;;;;;;;-142.75;71.87;77105.75;5000580;28;20032;-79
2021/08/17 05:10:37;;;;;;;24.20;10.75;;;;;;;-142.75;72.17;77101.81;5063926;28;20271;-78
2021/08/17 05:13:03;;;;;;;20.00;9.70;;;;;;;-142.75;72.25;77101.81;4997009;28;20037;-78
2021/08/17 05:15:36;;;;;;;24.00;9.60;;;;;;;-142.75;72.00;77090.00;5063716;28;20026;-78
2021/08/17 05:18:05;;;;;;;19.17;9.30;;;;;;;-142.75;71.87;77088.03;4996210;28;20026;-77
2021/08/17 05:20:30;;;;;;;19.40;9.32;;;;;;;-142.75;70.70;77032.91;5071564;28;20406;-78
2021/08/17 05:22:56;;;;;;;17.30;9.00;;;;;;;-142.75;69.66;77038.81;5065169;28;20036;-78
2021/08/17 05:25:22;;;;;;;;;;;;;;;-142.75;68.95;77046.69;4994134;28;20437;-78
2021/08/17 05:27:48;;;;;;;19.55;8.93;;;;;;;-142.75;69.27;77066.38;5051818;22;19929;-76
2021/08/17 05:30:13;;;;;;;;;;;;;;;-142.75;69.55;77064.41;5022752;28;20506;-77
2021/08/17 05:32:39;;;;;;;20.83;8.35;;;;;;;-142.75;70.02;77070.31;5024986;28;19958;-76
2021/08/17 05:35:05;;;;;;;27.20;10.65;;;;;;;-142.75;70.28;77070.31;5008002;28;20033;-76
2021/08/17 05:37:30;;;;;;;;;;;;;;;-142.75;70.47;77056.53;5008701;28;20032;-76
2021/08/17 05:39:55;;;;;;;21.45;8.98;;;;;;;-142.75;70.46;77056.53;5022436;28;19924;-76
2021/08/17 05:42:23;;;;;;;29.92;11.25;;;;;;;-142.75;70.40;77046.69;5024118;28;20030;-77
2021/08/17 05:44:48;;;;;;;24.27;11.10;;;;;;;-142.75;70.37;77027.00;5032351;28;20037;-77
2021/08/17 05:47:13;;;;;;;24.20;10.95;;;;;;;-142.75;70.04;77013.22;5035786;28;20014;-77
2021/08/17 05:49:39;;;;;;;;;;;;;;;-142.75;69.55;76983.69;5073667;28;20483;-76
2021/08/17 05:52:05;;;;;;;23.25;10.68;;;;;;;-142.75;69.54;76989.59;5040740;28;19917;-76
2021/08/17 05:54:31;;;;;;;20.48;10.32;;;;;;;-142.75;69.55;76993.53;5010180;28;20075;-77
2021/08/17 05:56:58;;;;;;;22.80;10.20;;;;;;;-142.75;69.72;76989.59;5009937;28;20034;-78
2021/08/17 05:59:25;;;;;;;23.77;10.80;;;;;;;-142.75;69.53;76971.88;5048725;28;20033;-76
2021/08/17 06:01:51;;;;;;;25.17;10.32;;;;;;;-142.75;69.44;76962.03;5029781;28;20018;-77
2021/08/17 06:04:16;;;;;;;;;;;;;;;-142.75;69.30;76950.22;5009669;28;20033;-76
2021/08/17 06:06:41;;;;;;;22.27;9.23;;;;;;;-142.75;68.76;76942.34;5030516;28;19922;-76
2021/08/17 06:09:06;;;;;;;;;;;;;;;-142.75;67.27;76924.63;5009167;28;20037;-76
2021/08/17 06:11:32;;;;;;;18.25;8.45;;;;;;;-142.75;66.93;76914.78;5010618;28;19924;-76
2021/08/17 06:13:57;;;;;;;;;;;;;;;-142.75;66.46;76906.91;5014290;28;20038;-75
2021/08/17 06:16:22;;;;;;;19.23;7.50;;;;;;;-142.75;66.11;76912.81;5025494;28;19924;-76
2021/08/17 06:18:47;;;;;;;;;;;;;;;-142.75;65.79;76895.09;5021484;28;20029;-77
2021/08/17 06:21:12;;;;;;;22.92;8.50;;;;;;;-142.75;65.30;76877.38;5031524;28;20298;-76
2021/08/17 06:23:38;;;;;;;;;;;;;;;-142.75;65.23;76865.56;5027001;28;20100;-75
2021/08/17 06:26:03;;;;;;;15.07;6.80;;;;;;;-142.75;64.54;76865.56;5019755;28;19920;-78
2021/08/17 06:28:28;;;;;;;;;;;;;;;-142.75;64.21;76851.78;5024040;28;20038;-77
2021/08/17 06:30:53;;;;;;;16.00;6.88;;;;;;;-142.75;63.77;76845.88;5012807;28;20016;-77
2021/08/17 06:33:19;;;;;;;;;;;;;;;-142.75;64.10;76843.91;5034538;28;20478;-78
2021/08/17 06:35:45;;;;;;;20.33;6.82;;;;;;;-142.75;63.97;76839.97;5062724;28;19913;-76
2021/08/17 06:38:10;;;;;;;;;;;;;;;-142.75;63.29;76830.13;5031508;28;20035;-79
2021/08/17 06:40:35;;;;;;;17.02;6.50;;;;;;;-142.75;62.71;76808.50;5016956;28;19913;-79
2021/08/17 06:43:01;;;;;;;;;;;;;;;-142.75;62.29;76788.81;5022488;28;20109;-79
2021/08/17 06:45:26;;;;;;;21.95;7.28;;;;;;;-142.75;62.04;76719.91;5066065;28;19913;-80
2021/08/17 06:47:52;;;;;;;;;;;;;;;-142.75;60.20;76641.16;5028839;28;20038;-78
2021/08/17 06:50:18;;;;;;;15.30;6.00;;;;;;;-142.75;57.95;76617.53;5021667;28;19917;-80
2021/08/17 06:52:44;;;;;;;18.95;6.82;;;;;;;-142.75;57.30;76629.34;5027299;28;20036;-80
2021/08/17 06:55:09;;;;;;;;;;;;;;;-142.75;57.29;76635.25;5018220;28;20154;-79
2021/08/17 06:57:35;;;;;;;16.23;6.38;;;;;;;-142.75;57.90;76658.88;5020507;28;19913;-78
2021/08/17 07:00:00;;;;;;;;;;;;;;;-142.75;57.95;76672.66;5022499;28;20037;-79
2021/08/17 07:02:25;;;;;;;16.88;6.97;;;;;;;-142.75;58.73;76704.16;5023334;28;19913;-80
2021/08/17 07:04:50;;;;;;;;;;;;;;;-142.75;58.68;76731.72;5030145;28;20071;-79
2021/08/17 07:07:16;;;;;;;15.63;6.45;;;;;;;-142.75;59.04;76753.38;5026667;28;20390;-79
2021/08/17 07:09:41;;;;;;;;;;;;;;;-142.75;58.91;76759.28;5030542;28;20029;-80
2021/08/17 07:12:06;;;;;;;12.60;5.32;;;;;;;-142.75;59.03;76773.06;5059955;28;19948;-79
2021/08/17 07:14:31;;;;;;;;;;;;;;;-142.75;59.59;76771.09;5016139;28;20120;-80
2021/08/17 07:16:57;;;;;;;12.05;5.57;;;;;;;-142.75;59.54;76775.03;5027403;28;20382;-78
2021/08/17 07:19:22;;;;;;;;;;;;;;;-142.75;59.44;76759.28;5054547;28;20078;-81
2021/08/17 07:21:47;;;;;;;19.42;6.03;;;;;;;-142.75;59.14;76755.34;5069501;28;19913;-80
2021/08/17 07:24:12;;;;;;;;;;;;;;;-142.75;58.75;76737.63;5071450;28;20025;-78
2021/08/17 07:26:38;;;;;;;13.35;5.25;;;;;;;-142.75;58.27;76731.72;5028257;28;19913;-79
2021/08/17 07:29:03;;;;;;;;;;;;;;;-142.75;57.93;76719.91;5043779;28;20030;-79
2021/08/17 07:31:29;;;;;;;20.10;5.60;;;;;;;-142.75;57.43;76712.03;5018453;28;19921;-78
2021/08/17 07:33:54;;;;;;;12.00;4.93;;;;;;;-142.75;57.84;76702.19;5018112;28;20022;-81
2021/08/17 07:36:19;;;;;;;;;;;;;;;-142.75;57.29;76696.28;5014888;28;20032;-78
2021/08/17 07:38:45;;;;;;;13.48;5.45;;;;;;;-142.75;57.04;76704.16;5026708;28;19965;-78
2021/08/17 07:41:10;;;;;;;;;;;;;;;-142.75;56.73;76700.22;5029611;28;20022;-80
2021/08/17 07:43:35;;;;;;;12.18;5.53;;;;;;;-142.75;57.10;76706.13;5018753;28;20019;-79
2021/08/17 07:46:00;;;;;;;;;;;;;;;-142.75;57.18;76688.41;5014106;28;20482;-78
2021/08/17 07:48:26;;;;;;;11.77;5.75;;;;;;;-142.75;56.86;76656.91;5024701;28;19948;-78
2021/08/17 07:50:51;;;;;;;;;;;;;;;-142.75;55.28;76619.50;5014434;28;20151;-83
2021/08/17 07:53:17;;;;;;;12.45;5.18;;;;;;;-142.75;54.14;76607.69;5023846;28;19913;-77
2021/08/17 07:55:42;;;;;;;;;;;;;;;-142.75;54.24;76597.84;5029770;28;20025;-78
2021/08/17 07:58:07;;;;;;;12.85;4.82;;;;;;;-142.75;53.47;76601.78;5020884;28;19913;-77
2021/08/17 08:00:32;;;;;;;;;;;;;;;-142.75;53.88;76609.66;5024531;28;20021;-78
2021/08/17 08:02:58;;;;;;;11.93;4.57;;;;;;;-142.75;53.29;76621.47;5021225;28;19913;-78
2021/08/17 08:05:23;;;;;;;;;;;;;;;-142.75;53.28;76627.38;5020160;28;20064;-77
2021/08/17 08:07:48;;;;;;;11.77;5.20;;;;;;;-142.75;53.68;76629.34;5013644;28;20017;-78
2021/08/17 08:10:13;;;;;;;;;;;;;;;-142.75;53.53;76645.09;5023069;28;20033;-79
2021/08/17 08:12:39;;;;;;;16.55;4.40;;;;;;;-142.75;53.67;76662.81;5027771;28;19912;-80
2021/08/17 08:15:05;;;;;;;;;;;;;;;-142.75;53.85;76678.56;5055092;28;20026;-79
2021/08/17 08:17:30;;;;;;;14.00;4.03;;;;;;;-142.75;53.81;76664.78;5033549;28;19918;-77
2021/08/17 08:19:56;;;;;;;;;;;;;;;-142.75;53.50;76633.28;5040136;28;20041;-78
2021/08/17 08:22:21;;;;;;;8.43;4.05;;;;;;;-142.75;53.19;76619.50;5011049;28;19947;-78
2021/08/17 08:24:46;;;;;;;;;;;;;;;-142.75;53.18;76625.41;5010355;28;20022;-76
2021/08/17 08:27:14;;;;;;;11.48;3.78;;;;;;;-142.75;52.75;76625.41;5009749;28;20323;-79
2021/08/17 08:29:40;;;;;;;10.52;3.67;;;;;;;-142.75;52.33;76649.03;5024264;28;20017;-77
2021/08/17 08:32:06;;;;;;;12.77;3.53;;;;;;;-142.75;53.38;76670.69;5030807;28;20022;-77
2021/08/17 08:34:31;;;;;;;9.85;3.65;;;;;;;-142.75;53.59;76698.25;5019659;28;20046;-78
2021/08/17 08:36:57;;;;;;;;;;;;;;;-142.75;53.51;76721.88;5009527;28;20517;-78
2021/08/17 08:39:22;;;;;;;8.38;3.10;;;;;;;-142.75;54.24;76741.56;5074937;28;19913;-78
2021/08/17 08:41:47;;;;;;;;;;;;;;;-142.75;54.73;76739.59;5028367;28;20032;-77
2021/08/17 08:44:14;;;;;;;7.95;4.00;;;;;;;-142.75;54.70;76727.78;5025808;28;19917;-77
2021/08/17 08:46:40;;;;;;;11.23;2.90;;;;;;;-142.75;53.69;76712.03;5018605;28;20403;-77
2021/08/17 08:49:05;;;;;;;9.02;3.38;;;;;;;-142.75;53.67;76704.16;5007182;28;20036;-77
2021/08/17 08:51:31;;;;;;;;;;;;;;;-142.75;53.34;76704.16;5018896;28;20034;-78
2021/08/17 08:53:56;;;;;;;5.88;3.28;;;;;;;-142.75;53.29;76714.00;5016160;28;19913;-77
2021/08/17 08:56:25;;;;;;;;;;;;;;;-142.75;53.22;76727.78;5027344;28;20025;-77
2021/08/17 08:58:52;;;;;;;13.77;3.80;;;;;;;-142.75;53.43;76739.59;5068568;28;19938;-80
2021/08/17 09:01:22;;;;;;;11.23;3.63;;;;;;;-142.75;53.72;76747.47;5009049;28;20499;-76
2021/08/17 09:03:49;;;;;;;7.57;3.38;;;;;;;-142.75;54.08;76759.28;5015046;28;20393;-77
2021/08/17 09:06:20;;;;;;;11.57;3.72;;;;;;;-142.75;53.97;76753.38;5020356;28;20041;-78
2021/08/17 09:08:47;;;;;;;9.85;3.20;;;;;;;-142.75;54.21;76759.28;5024486;28;20045;-77
2021/08/17 09:11:21;;;;;;;7.97;3.33;;;;;;;-142.75;54.33;76769.13;5010459;28;20030;-78
2021/08/17 09:13:47;;;;;;;8.88;3.13;;;;;;;-142.75;54.66;76765.19;5010321;28;20036;-77
2021/08/17 09:16:24;;;;;;;8.80;3.17;;;;;;;-142.75;54.51;76767.16;5018605;28;20025;-76
2021/08/17 09:18:52;;;;;;;10.00;3.22;;;;;;;-142.75;55.35;76782.91;5010143;28;20036;-77
2021/08/17 09:21:18;;;;;;;7.45;2.95;;;;;;;-142.75;55.69;76784.88;5027814;28;20482;-76
2021/08/17 09:23:43;;;;;;;9.98;3.28;;;;;;;-142.75;55.52;76790.78;5026914;28;20067;-77
2021/08/17 09:26:22;;;;;;;;;;;;;;;-142.75;55.17;76771.09;5029404;28;20065;-77
2021/08/17 09:28:56;;;;;;;9.23;3.60;;;;;;;-142.75;54.90;76771.09;5027159;28;19913;-77
2021/08/17 09:31:49;;;;;;;7.03;2.92;;;;;;;-142.75;55.23;76769.13;5009373;28;20444;-76
2021/08/17 09:34:15;;;;;;;9.70;3.50;;;;;;;-142.75;55.48;76769.13;5025049;28;20042;-77
2021/08/17 09:36:42;;;;;;;;;;;;;;;-142.75;54.33;76755.34;5008333;28;20026;-77
2021/08/17 09:39:08;;;;;;;9.05;3.25;;;;;;;-142.75;54.80;76757.31;5007130;28;19937;-77
2021/08/17 09:41:34;;;;;;;8.02;3.47;;;;;;;-142.75;54.70;76759.28;5007458;28;20049;-77
2021/08/17 09:43:59;;;;;;;;;;;;;;;-142.75;54.92;76761.25;5007535;28;20470;-75
2021/08/17 09:46:33;;;;;;;10.02;3.47;;;;;;;-142.75;55.05;76769.13;5050273;28;19989;-77
2021/08/17 09:49:18;;;;;;;9.77;3.33;;;;;;;-142.75;55.38;76778.97;5015289;28;20165;-77
2021/08/17 09:51:43;;;;;;;9.80;3.17;;;;;;;-142.75;55.31;76794.69;5027696;28;20022;-77
2021/08/17 09:54:13;;;;;;;;;;;;;;;-142.75;54.92;76794.69;5010888;28;20040;-76
2021/08/17 09:56:39;;;;;;;6.95;2.20;;;;;;;-142.75;54.59;76806.50;5028574;28;20401;-76
2021/08/17 09:59:05;;;;;;;;;;;;;;;-142.75;55.55;76806.50;5028049;28;20108;-77
2021/08/17 10:01:30;;;;;;;6.63;2.28;;;;;;;-142.75;55.30;76808.50;5013664;28;19913;-77
2021/08/17 10:03:57;;;;;;;;;;;;;;;-142.75;55.70;76814.38;5012491;28;20076;-77
2021/08/17 10:06:23;;;;;;;6.90;2.25;;;;;;;-142.75;57.32;76849.81;5019416;28;19920;-77
2021/08/17 10:08:48;;;;;;;;;;;;;;;-142.75;58.57;76857.69;5012274;28;20026;-77
2021/08/17 10:11:16;;;;;;;5.25;2.38;;;;;;;-142.75;59.57;76873.44;5009296;28;19921;-76
2021/08/17 10:13:42;;;;;;;7.30;2.50;;;;;;;-142.75;60.63;76871.47;5009479;28;20034;-76
2021/08/17 10:16:07;;;;;;;;;;;;;;;-142.75;60.93;76869.50;5009867;28;20086;-77
2021/08/17 10:18:36;;;;;;;8.05;2.30;;;;;;;-142.75;61.84;76861.63;5009602;28;20933;-78
2021/08/17 10:21:02;;;;;;;10.02;3.05;;;;;;;-142.75;62.05;76865.56;5007406;28;20025;-77
2021/08/17 10:23:27;;;;;;;;;;;;;;;-142.75;62.58;76863.59;5009219;28;20026;-76
2021/08/17 10:26:01;;;;;;;8.35;3.17;;;;;;;-142.75;62.99;76875.41;5009924;28;19918;-77
2021/08/17 10:28:37;;;;;;;8.32;3.53;;;;;;;-142.75;64.06;76879.34;5010022;28;20030;-78
2021/08/17 10:31:12;;;;;;;6.32;2.72;;;;;;;-142.75;64.44;76893.13;5030076;28;20024;-79
2021/08/17 10:33:38;;;;;;;6.75;3.20;;;;;;;-142.75;65.53;76920.69;5039330;28;20029;-80
2021/08/17 10:36:03;;;;;;;;;;;;;;;-142.75;66.56;76912.81;5046480;28;20030;-81
2021/08/17 10:38:29;;;;;;;7.47;3.70;;;;;;;-142.75;67.07;76924.63;5029852;28;20414;-80
2021/08/17 10:40:59;;;;;;;;;;;;;;;-142.75;67.81;76940.38;5017786;28;20150;-83
2021/08/17 10:43:45;;;;;;;9.27;4.15;;;;;;;-142.75;68.35;76952.19;5027924;28;19913;-81
2021/08/17 10:46:12;;;;;;;9.55;4.07;;;;;;;-142.75;69.20;76956.13;5016599;28;20065;-80
2021/08/17 10:51:29;;;;;;;14.27;4.47;;;;;;;-142.75;69.28;76920.69;5008291;28;20116;-79
2021/08/17 10:54:04;;;;;;;12.52;4.57;;;;;;;-142.75;69.61;76948.25;5018136;28;20026;-80
2021/08/17 10:56:30;;;;;;;10.15;4.57;;;;;;;-142.75;70.27;76964.00;5008769;28;20021;-80
2021/08/17 10:58:58;;;;;;;11.77;4.50;;;;;;;-142.75;70.82;76967.94;5008802;28;20018;-80
2021/08/17 11:01:30;;;;;;;12.57;5.05;;;;;;;-142.75;71.38;76975.81;5024741;28;20030;-82
2021/08/17 11:04:06;;;;;;;16.45;5.15;;;;;;;-142.75;71.59;76956.13;5007370;28;20027;-81
2021/08/17 11:06:36;;;;;;;13.88;5.72;;;;;;;-142.75;71.69;76960.06;5009063;28;20511;-82
2021/08/17 11:09:03;;;;;;;13.30;5.32;;;;;;;-142.75;72.15;76964.00;5010134;28;20045;-81
2021/08/17 11:11:29;;;;;;;9.80;4.32;;;;;;;-142.75;72.23;76962.03;5028363;28;20026;-80
2021/08/17 11:14:03;;;;;;;;;;;;;;;-142.75;72.23;76960.06;5009611;28;20063;-81
2021/08/17 11:16:28;;;;;;;8.75;4.60;;;;;;;-142.75;72.02;76960.06;5011083;28;19917;-80
2021/08/17 11:19:00;;;;;;;9.93;5.07;;;;;;;-142.75;71.76;76952.19;5012491;28;20029;-81
2021/08/17 11:21:44;;;;;;;8.07;4.38;;;;;;;-142.75;71.79;76946.28;5010911;28;20018;-80
2021/08/17 11:24:24;;;;;;;7.68;4.35;;;;;;;-142.75;71.75;76948.25;5009049;28;20029;-80
2021/08/17 11:27:13;;;;;;;13.73;5.47;;;;;;;-142.75;72.02;76948.25;5010422;28;20086;-81
2021/08/17 11:29:51;;;;;;;11.02;5.25;;;;;;;-142.75;72.34;76944.31;5012078;28;20030;-81
2021/08/17 11:32:39;;;;;;;12.23;4.95;;;;;;;-142.75;72.34;76954.16;5013472;28;20078;-80